Time;durP1;ratioP1;P1;durP2;ratioP2;P2;SDS_P1;SDS_P2;PMS_P1;PMS_P2;Temp;Humidity;BMP_temperature;BMP_pressure;BME280_temperature;BME280_humidity;BME280_pressure;Samples;Min_cycle;Max_cycle;Signal;HPM_P1;HPM_P2
2022/02/18 00:01:16;;;;;;;14.90;9.05;;;;;;;;;;5117035;28;20023;-66
2022/02/18 00:03:44;;;;;;;14.35;9.05;;;;;;;;;;5116998;28;20452;-66
2022/02/18 00:06:11;;;;;;;19.65;8.02;;;;;;;;;;5116925;28;20470;-67
2022/02/18 00:08:37;;;;;;;14.57;7.50;;;;;;;;;;5098490;28;20505;-66
2022/02/18 00:11:04;;;;;;;19.45;9.00;;;;;;;;;;5098490;28;20023;-67
2022/02/18 00:13:31;;;;;;;13.80;8.00;;;;;;;;;;5116771;28;20099;-66
2022/02/18 00:15:58;;;;;;;13.70;7.65;;;;;;;;;;5098452;28;20504;-66
2022/02/18 00:18:24;;;;;;;11.05;6.07;;;;;;;;;;5116791;28;20077;-67
2022/02/18 00:20:50;;;;;;;11.45;5.30;;;;;;;;;;5116975;28;20110;-67
2022/02/18 00:23:16;;;;;;;12.20;4.88;;;;;;;;;;5116593;28;20022;-67
2022/02/18 00:25:42;;;;;;;11.05;4.55;;;;;;;;;;5116584;28;20024;-67
2022/02/18 00:28:09;;;;;;;7.28;3.70;;;;;;;;;;5116494;28;20107;-66
2022/02/18 00:30:35;;;;;;;9.27;3.60;;;;;;;;;;5116742;28;20036;-67
2022/02/18 00:33:01;;;;;;;7.40;3.45;;;;;;;;;;5116378;28;20102;-66
2022/02/18 00:35:28;;;;;;;10.73;3.67;;;;;;;;;;5116307;28;20023;-66
2022/02/18 00:37:54;;;;;;;11.38;3.33;;;;;;;;;;5116028;28;20389;-67
2022/02/18 00:40:21;;;;;;;8.75;3.10;;;;;;;;;;5116239;28;20104;-67
2022/02/18 00:42:49;;;;;;;11.00;3.83;;;;;;;;;;5116271;28;20098;-67
2022/02/18 00:45:48;;;;;;;10.40;4.13;;;;;;;;;;5116253;28;20126;-67
2022/02/18 00:48:15;;;;;;;12.23;4.95;;;;;;;;;;5116204;28;20077;-67
2022/02/18 00:50:42;;;;;;;7.22;3.20;;;;;;;;;;5097725;28;20024;-67
2022/02/18 00:53:08;;;;;;;11.93;3.20;;;;;;;;;;5097778;28;20027;-67
2022/02/18 00:55:34;;;;;;;7.25;2.67;;;;;;;;;;5097654;28;20057;-67
2022/02/18 00:58:01;;;;;;;11.13;3.00;;;;;;;;;;5115254;28;20054;-67
2022/02/18 01:00:27;;;;;;;5.55;2.30;;;;;;;;;;5115586;28;20488;-64
2022/02/18 01:02:53;;;;;;;2.63;1.42;;;;;;;;;;5115804;28;20050;-65
2022/02/18 01:05:19;;;;;;;4.95;1.92;;;;;;;;;;5097519;28;20443;-64
2022/02/18 01:07:46;;;;;;;1.30;1.00;;;;;;;;;;5115720;28;20024;-64
2022/02/18 01:10:13;;;;;;;4.07;1.42;;;;;;;;;;5115669;28;20035;-64
2022/02/18 01:12:39;;;;;;;5.35;1.73;;;;;;;;;;5115289;28;20388;-64
2022/02/18 01:15:06;;;;;;;5.28;1.73;;;;;;;;;;5115155;28;20047;-64
2022/02/18 01:17:33;;;;;;;8.07;1.27;;;;;;;;;;5115547;28;20032;-64
2022/02/18 01:19:59;;;;;;;6.88;1.45;;;;;;;;;;5097152;28;20118;-68
2022/02/18 01:22:26;;;;;;;5.53;1.45;;;;;;;;;;5115493;28;20027;-68
2022/02/18 01:24:52;;;;;;;2.85;1.40;;;;;;;;;;5115406;28;20499;-67
2022/02/18 01:27:18;;;;;;;3.67;1.45;;;;;;;;;;5115503;28;20042;-69
2022/02/18 01:29:44;;;;;;;4.90;1.65;;;;;;;;;;5115320;28;20032;-65
2022/02/18 01:32:12;;;;;;;4.88;1.40;;;;;;;;;;5096915;28;20023;-66
2022/02/18 01:34:38;;;;;;;8.27;1.63;;;;;;;;;;5114930;28;20120;-66
2022/02/18 01:37:05;;;;;;;6.35;2.25;;;;;;;;;;5115212;28;20030;-68
2022/02/18 01:39:32;;;;;;;8.80;2.67;;;;;;;;;;5115128;28;20068;-68
2022/02/18 01:41:58;;;;;;;5.45;2.97;;;;;;;;;;5115049;28;20027;-67
2022/02/18 01:44:38;;;;;;;8.68;3.10;;;;;;;;;;5096601;28;20019;-68
2022/02/18 01:47:05;;;;;;;6.63;2.13;;;;;;;;;;5114960;28;20028;-66
2022/02/18 01:49:31;;;;;;;5.30;1.85;;;;;;;;;;5114938;28;20039;-69
2022/02/18 01:51:58;;;;;;;4.93;1.15;;;;;;;;;;5114884;28;20024;-68
2022/02/18 01:54:24;;;;;;;9.23;1.70;;;;;;;;;;5096523;28;20463;-67
2022/02/18 01:56:50;;;;;;;4.70;1.70;;;;;;;;;;5115068;28;20027;-67
2022/02/18 01:59:17;;;;;;;7.82;2.80;;;;;;;;;;5114395;28;20537;-67
2022/02/18 02:01:43;;;;;;;7.70;1.70;;;;;;;;;;5114664;28;20141;-67
2022/02/18 02:04:11;;;;;;;5.40;1.60;;;;;;;;;;5096319;28;20020;-69
2022/02/18 02:06:37;;;;;;;7.05;1.95;;;;;;;;;;5096302;28;20126;-70
2022/02/18 02:09:03;;;;;;;6.35;1.77;;;;;;;;;;5113666;28;20471;-68
2022/02/18 02:11:29;;;;;;;7.25;2.08;;;;;;;;;;5096206;28;20425;-67
2022/02/18 02:13:55;;;;;;;7.90;2.30;;;;;;;;;;5095807;28;20536;-67
2022/02/18 02:16:22;;;;;;;5.15;2.45;;;;;;;;;;5096134;28;20030;-67
2022/02/18 02:18:48;;;;;;;4.45;1.17;;;;;;;;;;5114378;28;20526;-68
2022/02/18 02:21:14;;;;;;;2.72;1.40;;;;;;;;;;5095788;28;20119;-67
2022/02/18 02:23:41;;;;;;;5.43;1.50;;;;;;;;;;5114291;28;20028;-67
2022/02/18 02:26:13;;;;;;;4.82;1.50;;;;;;;;;;5114218;28;20099;-68
2022/02/18 02:28:40;;;;;;;3.08;1.35;;;;;;;;;;5113812;28;20040;-68
2022/02/18 02:31:06;;;;;;;6.35;2.00;;;;;;;;;;5095876;28;20031;-68
2022/02/18 02:33:33;;;;;;;5.15;2.05;;;;;;;;;;5114072;28;20020;-68
2022/02/18 02:35:59;;;;;;;4.07;1.58;;;;;;;;;;5114025;28;20024;-68
2022/02/18 02:38:26;;;;;;;6.75;1.70;;;;;;;;;;5114113;28;20032;-68
2022/02/18 02:40:52;;;;;;;4.30;1.40;;;;;;;;;;5114269;28;20027;-68
2022/02/18 02:43:18;;;;;;;4.72;1.50;;;;;;;;;;5113993;28;20428;-68
2022/02/18 02:45:45;;;;;;;5.13;2.17;;;;;;;;;;5113917;28;20023;-68
2022/02/18 02:48:11;;;;;;;4.93;1.80;;;;;;;;;;5113909;28;20035;-68
2022/02/18 02:50:37;;;;;;;4.60;2.08;;;;;;;;;;5114102;28;20031;-68
2022/02/18 02:53:04;;;;;;;9.73;2.20;;;;;;;;;;5113752;28;20035;-68
2022/02/18 02:55:30;;;;;;;6.80;1.92;;;;;;;;;;5114036;28;20031;-68
2022/02/18 02:57:56;;;;;;;4.03;1.70;;;;;;;;;;5113758;28;20057;-68
2022/02/18 03:00:22;;;;;;;12.68;3.42;;;;;;;;;;5095438;28;20386;-68
2022/02/18 03:02:49;;;;;;;13.05;4.00;;;;;;;;;;5095401;28;20027;-68
2022/02/18 03:05:15;;;;;;;15.68;5.88;;;;;;;;;;5095240;28;20588;-68
2022/02/18 03:07:41;;;;;;;13.82;4.95;;;;;;;;;;5113597;28;20031;-68
2022/02/18 03:10:08;;;;;;;13.30;3.83;;;;;;;;;;5113622;28;20027;-67
2022/02/18 03:12:35;;;;;;;7.43;2.33;;;;;;;;;;5113839;28;20034;-66
2022/02/18 03:15:02;;;;;;;6.72;2.85;;;;;;;;;;5113463;28;20044;-65
2022/02/18 03:17:28;;;;;;;4.65;2.17;;;;;;;;;;5113558;28;20036;-66
2022/02/18 03:19:55;;;;;;;4.57;2.42;;;;;;;;;;5115922;28;20024;-69
2022/02/18 03:22:21;;;;;;;9.23;2.55;;;;;;;;;;5101656;28;20169;-69
2022/02/18 03:24:47;;;;;;;8.20;1.95;;;;;;;;;;5120264;28;20020;-69
2022/02/18 03:27:13;;;;;;;6.75;2.20;;;;;;;;;;5120453;28;20110;-69
2022/02/18 03:29:39;;;;;;;8.48;2.88;;;;;;;;;;5120208;28;20114;-69
2022/02/18 03:32:06;;;;;;;9.75;2.60;;;;;;;;;;5119865;28;20384;-68
2022/02/18 03:34:34;;;;;;;9.90;3.80;;;;;;;;;;5120168;28;20062;-68
2022/02/18 03:37:00;;;;;;;12.10;2.80;;;;;;;;;;5120172;28;20460;-67
2022/02/18 03:39:26;;;;;;;7.28;2.38;;;;;;;;;;5101753;28;20019;-67
2022/02/18 03:41:53;;;;;;;7.22;3.10;;;;;;;;;;5120060;28;20019;-67
2022/02/18 03:44:19;;;;;;;6.80;2.08;;;;;;;;;;5101647;28;20032;-67
2022/02/18 03:46:45;;;;;;;6.18;1.27;;;;;;;;;;5120004;28;20030;-69
2022/02/18 03:49:11;;;;;;;2.58;1.20;;;;;;;;;;5101680;28;20077;-69
2022/02/18 03:51:38;;;;;;;5.65;2.03;;;;;;;;;;5120030;28;20028;-69
2022/02/18 03:54:04;;;;;;;5.50;1.60;;;;;;;;;;5119947;28;20068;-69
2022/02/18 03:56:30;;;;;;;4.25;1.10;;;;;;;;;;5119709;28;20424;-68
2022/02/18 03:58:57;;;;;;;6.35;1.67;;;;;;;;;;5120022;28;20064;-68
2022/02/18 04:01:23;;;;;;;5.80;1.98;;;;;;;;;;5101576;28;20450;-69
2022/02/18 04:03:49;;;;;;;5.93;1.52;;;;;;;;;;5119961;28;20062;-69
2022/02/18 04:06:15;;;;;;;6.03;1.30;;;;;;;;;;5119887;28;20015;-70
2022/02/18 04:08:42;;;;;;;7.60;1.60;;;;;;;;;;5119879;28;20106;-69
2022/02/18 04:11:08;;;;;;;4.05;1.70;;;;;;;;;;5119875;28;20038;-70
2022/02/18 04:13:35;;;;;;;5.30;1.42;;;;;;;;;;5101248;28;20019;-71
2022/02/18 04:16:01;;;;;;;9.52;2.97;;;;;;;;;;5119865;28;20023;-70
2022/02/18 04:18:27;;;;;;;8.82;2.80;;;;;;;;;;5101483;28;20032;-69
2022/02/18 04:20:54;;;;;;;8.05;2.70;;;;;;;;;;5120065;28;20481;-69
2022/02/18 04:23:20;;;;;;;8.75;2.08;;;;;;;;;;5120001;28;20020;-67
2022/02/18 04:25:46;;;;;;;8.27;2.60;;;;;;;;;;5119701;28;20112;-67
2022/02/18 04:28:13;;;;;;;12.05;3.15;;;;;;;;;;5119670;28;20024;-67
2022/02/18 04:30:41;;;;;;;8.02;3.00;;;;;;;;;;5119313;28;20043;-67
2022/02/18 04:33:07;;;;;;;8.00;3.10;;;;;;;;;;5097279;28;20031;-67
2022/02/18 04:35:33;;;;;;;13.38;4.10;;;;;;;;;;5098092;28;20032;-68
2022/02/18 04:38:00;;;;;;;6.90;3.00;;;;;;;;;;5116671;28;20059;-68
2022/02/18 04:40:26;;;;;;;15.15;7.50;;;;;;;;;;5116332;28;20027;-68
2022/02/18 04:42:52;;;;;;;21.75;11.85;;;;;;;;;;5116217;28;20360;-66
2022/02/18 04:45:19;;;;;;;28.95;14.52;;;;;;;;;;5116468;28;20149;-66
2022/02/18 04:47:45;;;;;;;12.23;5.97;;;;;;;;;;5116196;28;20510;-66
2022/02/18 04:50:11;;;;;;;14.60;4.72;;;;;;;;;;5116390;28;20062;-66
2022/02/18 04:52:37;;;;;;;17.23;7.07;;;;;;;;;;5116109;28;20028;-65
2022/02/18 04:55:06;;;;;;;27.05;10.50;;;;;;;;;;5097618;28;20023;-66
2022/02/18 04:57:32;;;;;;;32.83;12.23;;;;;;;;;;5115976;28;20027;-66
2022/02/18 04:59:59;;;;;;;34.55;12.45;;;;;;;;;;5115898;28;20051;-66
2022/02/18 05:02:26;;;;;;;27.88;10.70;;;;;;;;;;5115881;28;20030;-65
2022/02/18 05:04:52;;;;;;;31.15;10.80;;;;;;;;;;5097518;28;20024;-67
2022/02/18 05:07:19;;;;;;;25.60;9.88;;;;;;;;;;5115925;28;20027;-67
2022/02/18 05:09:45;;;;;;;24.67;8.75;;;;;;;;;;5115798;28;20111;-67
2022/02/18 05:12:12;;;;;;;23.23;8.30;;;;;;;;;;5115681;28;20020;-68
2022/02/18 05:14:38;;;;;;;21.92;9.65;;;;;;;;;;5115499;28;20052;-68
2022/02/18 05:17:04;;;;;;;23.35;9.45;;;;;;;;;;5115545;28;20036;-67
2022/02/18 05:19:31;;;;;;;22.33;8.65;;;;;;;;;;5115638;28;20034;-67
2022/02/18 05:21:57;;;;;;;18.85;6.65;;;;;;;;;;5115491;28;20106;-67
2022/02/18 05:24:23;;;;;;;17.30;7.10;;;;;;;;;;5115451;28;20035;-66
2022/02/18 05:26:49;;;;;;;19.40;7.30;;;;;;;;;;5115037;28;20111;-67
2022/02/18 05:29:15;;;;;;;17.35;5.72;;;;;;;;;;5115397;28;20028;-67
2022/02/18 05:31:42;;;;;;;11.50;4.85;;;;;;;;;;5115321;28;20032;-66
2022/02/18 05:34:08;;;;;;;13.77;4.85;;;;;;;;;;5115303;28;20090;-66
2022/02/18 05:36:34;;;;;;;11.15;6.10;;;;;;;;;;5115473;28;20056;-66
2022/02/18 05:39:00;;;;;;;11.45;5.22;;;;;;;;;;5115235;28;20059;-66
2022/02/18 05:41:26;;;;;;;12.60;4.63;;;;;;;;;;5114860;28;20490;-66
2022/02/18 05:43:52;;;;;;;12.13;5.38;;;;;;;;;;5114864;28;20026;-66
2022/02/18 05:46:19;;;;;;;17.20;8.00;;;;;;;;;;5096719;28;20039;-67
2022/02/18 05:48:45;;;;;;;32.05;12.38;;;;;;;;;;5096627;28;20124;-65
2022/02/18 05:51:11;;;;;;;38.75;14.35;;;;;;;;;;5115000;28;20168;-66
2022/02/18 05:53:37;;;;;;;19.33;8.48;;;;;;;;;;5114846;28;20114;-66
2022/02/18 05:56:04;;;;;;;16.15;8.10;;;;;;;;;;5096482;28;20024;-65
2022/02/18 05:58:32;;;;;;;20.77;8.90;;;;;;;;;;5114793;28;20066;-66
2022/02/18 06:00:58;;;;;;;22.25;10.30;;;;;;;;;;5096355;28;20020;-66
2022/02/18 06:03:24;;;;;;;21.30;8.90;;;;;;;;;;5096101;28;20468;-67
2022/02/18 06:05:51;;;;;;;19.60;7.82;;;;;;;;;;5114550;28;20051;-67
2022/02/18 06:08:17;;;;;;;43.30;16.17;;;;;;;;;;5096259;28;20027;-67
2022/02/18 06:10:43;;;;;;;51.17;22.05;;;;;;;;;;5096516;28;20356;-67
2022/02/18 06:13:09;;;;;;;43.53;22.92;;;;;;;;;;5114167;28;20075;-66
2022/02/18 06:15:36;;;;;;;55.22;30.73;;;;;;;;;;5113907;28;20444;-66
2022/02/18 06:18:03;;;;;;;21.13;8.52;;;;;;;;;;5114128;28;20028;-66
2022/02/18 06:20:29;;;;;;;24.23;7.35;;;;;;;;;;5114335;28;20072;-66
2022/02/18 06:22:55;;;;;;;17.63;7.22;;;;;;;;;;5092010;28;20095;-66
2022/02/18 06:25:21;;;;;;;22.92;7.22;;;;;;;;;;5103140;28;20028;-66
2022/02/18 06:27:48;;;;;;;26.88;9.00;;;;;;;;;;5103208;28;20102;-68
2022/02/18 06:30:14;;;;;;;51.78;21.17;;;;;;;;;;5096440;28;20449;-68
2022/02/18 06:32:40;;;;;;;73.85;26.38;;;;;;;;;;5078273;28;20027;-68
2022/02/18 06:35:07;;;;;;;68.70;26.00;;;;;;;;;;5110432;28;20464;-67
2022/02/18 06:37:33;;;;;;;74.60;26.13;;;;;;;;;;5114284;28;20084;-66
2022/02/18 06:39:59;;;;;;;70.57;27.48;;;;;;;;;;5114198;28;20028;-66
2022/02/18 06:42:25;;;;;;;89.13;32.42;;;;;;;;;;5113847;28;20027;-66
2022/02/18 06:44:52;;;;;;;77.32;30.25;;;;;;;;;;5113477;28;20054;-65
2022/02/18 06:47:18;;;;;;;82.53;31.50;;;;;;;;;;5113621;28;20039;-65
2022/02/18 06:49:44;;;;;;;67.45;25.13;;;;;;;;;;5094041;28;20565;-66
2022/02/18 06:52:11;;;;;;;47.08;19.92;;;;;;;;;;5088721;28;20031;-66
2022/02/18 06:54:37;;;;;;;46.97;20.02;;;;;;;;;;5113410;28;20111;-66
2022/02/18 06:57:05;;;;;;;66.50;26.63;;;;;;;;;;5113547;28;20042;-64
2022/02/18 06:59:31;;;;;;;72.88;28.35;;;;;;;;;;5113932;28;20053;-65
2022/02/18 07:01:57;;;;;;;47.63;20.23;;;;;;;;;;5113707;28;20027;-65
2022/02/18 07:04:24;;;;;;;44.03;20.30;;;;;;;;;;5078565;28;20032;-66
2022/02/18 07:06:50;;;;;;;40.78;18.65;;;;;;;;;;5113522;28;20491;-65
2022/02/18 07:09:17;;;;;;;59.55;20.83;;;;;;;;;;5095019;28;20036;-67
2022/02/18 07:11:43;;;;;;;41.67;16.42;;;;;;;;;;5113186;28;20423;-66
2022/02/18 07:14:11;;;;;;;51.83;24.23;;;;;;;;;;5113173;28;20040;-65
2022/02/18 07:16:41;;;;;;;38.03;16.30;;;;;;;;;;5113490;28;20035;-65
2022/02/18 07:19:08;;;;;;;34.88;13.25;;;;;;;;;;5113496;28;20031;-65
2022/02/18 07:21:34;;;;;;;40.95;15.63;;;;;;;;;;5113409;28;20106;-65
2022/02/18 07:24:01;;;;;;;30.33;13.52;;;;;;;;;;5095148;28;20030;-65
2022/02/18 07:26:27;;;;;;;29.80;11.70;;;;;;;;;;5094923;28;20030;-65
2022/02/18 07:28:53;;;;;;;34.70;13.10;;;;;;;;;;5094266;28;20114;-68
2022/02/18 07:31:19;;;;;;;28.92;9.98;;;;;;;;;;5113513;28;20456;-65
2022/02/18 07:33:45;;;;;;;32.33;9.80;;;;;;;;;;5112938;28;20478;-64
2022/02/18 07:36:11;;;;;;;24.50;10.25;;;;;;;;;;5113323;28;20080;-64
2022/02/18 07:38:38;;;;;;;29.95;9.00;;;;;;;;;;5095001;28;20066;-64
2022/02/18 07:41:04;;;;;;;25.90;8.10;;;;;;;;;;5113212;28;20015;-63
2022/02/18 07:43:30;;;;;;;22.90;8.57;;;;;;;;;;5113244;28;20012;-64
2022/02/18 07:45:58;;;;;;;17.85;6.43;;;;;;;;;;5112858;28;20387;-65
2022/02/18 07:48:25;;;;;;;21.10;6.85;;;;;;;;;;5111556;28;20038;-66
2022/02/18 07:50:51;;;;;;;12.80;4.25;;;;;;;;;;5094435;28;20099;-67
2022/02/18 07:53:17;;;;;;;15.65;4.55;;;;;;;;;;5091704;28;20055;-67
2022/02/18 07:55:44;;;;;;;16.98;4.65;;;;;;;;;;5091719;28;20032;-67
2022/02/18 07:58:11;;;;;;;13.65;3.63;;;;;;;;;;5073622;28;20040;-65
2022/02/18 08:00:38;;;;;;;15.25;5.70;;;;;;;;;;5091970;28;20103;-68
2022/02/18 08:03:04;;;;;;;11.07;3.60;;;;;;;;;;5074260;28;20035;-68
2022/02/18 08:05:31;;;;;;;20.67;3.78;;;;;;;;;;5073609;28;20034;-67
2022/02/18 08:07:57;;;;;;;11.02;3.08;;;;;;;;;;5095194;28;20028;-67
2022/02/18 08:10:24;;;;;;;12.13;3.88;;;;;;;;;;5078256;28;20024;-67
2022/02/18 08:12:50;;;;;;;14.90;2.88;;;;;;;;;;5078147;28;20520;-66
2022/02/18 08:15:16;;;;;;;9.15;2.30;;;;;;;;;;5057997;28;20048;-66
2022/02/18 08:17:45;;;;;;;23.05;4.10;;;;;;;;;;5055977;28;20068;-66
2022/02/18 08:20:12;;;;;;;9.02;3.97;;;;;;;;;;5054665;28;20032;-66
2022/02/18 08:22:39;;;;;;;18.98;6.90;;;;;;;;;;5054632;28;20029;-65
2022/02/18 08:25:06;;;;;;;8.93;2.47;;;;;;;;;;5055271;28;20021;-69
2022/02/18 08:27:32;;;;;;;7.45;2.08;;;;;;;;;;5054212;28;20071;-69
2022/02/18 08:29:58;;;;;;;13.75;2.97;;;;;;;;;;5055790;28;20057;-70
2022/02/18 08:32:24;;;;;;;12.57;3.90;;;;;;;;;;5055647;28;20021;-72
2022/02/18 08:34:51;;;;;;;9.05;2.10;;;;;;;;;;5054105;28;20087;-73
2022/02/18 08:37:17;;;;;;;12.05;2.47;;;;;;;;;;5055427;28;20459;-75
2022/02/18 08:39:43;;;;;;;5.53;1.80;;;;;;;;;;5053856;28;20027;-73
2022/02/18 08:42:11;;;;;;;8.20;2.20;;;;;;;;;;5054074;28;20021;-73
2022/02/18 08:44:37;;;;;;;15.13;4.80;;;;;;;;;;5053936;28;20053;-71
2022/02/18 08:47:04;;;;;;;19.65;7.43;;;13.10;76.70;;;;;;5054805;28;20412;-70
2022/02/18 08:49:30;;;;;;;41.33;19.75;;;13.20;76.80;;;;;;5055359;28;20103;-67
2022/02/18 08:51:56;;;;;;;9.85;2.85;;;13.30;77.90;;;;;;5055403;28;20059;-70
2022/02/18 08:54:22;;;;;;;6.75;2.88;;;13.30;73.10;;;;;;5054405;28;20017;-66
2022/02/18 08:56:49;;;;;;;8.80;3.20;;;13.60;95.60;;;;;;5054579;28;20546;-70
2022/02/18 08:59:16;;;;;;;9.05;2.80;;;13.80;90.40;;;;;;5054606;28;20033;-69
2022/02/18 09:01:42;;;;;;;9.10;2.47;;;13.90;85.90;;;;;;5054993;28;20106;-68
2022/02/18 09:04:09;;;;;;;12.10;3.38;;;14.00;80.20;;;;;;5055429;28;20089;-68
2022/02/18 09:06:35;;;;;;;10.23;4.05;;;14.20;79.60;;;;;;5054387;28;20111;-67
2022/02/18 09:09:01;;;;;;;12.50;3.03;;;14.10;77.80;;;;;;5054642;28;20120;-67
2022/02/18 09:11:28;;;;;;;9.85;3.00;;;14.10;75.00;;;;;;5054802;28;20029;-68
2022/02/18 09:13:54;;;;;;;7.80;2.72;;;14.10;74.80;;;;;;5064872;28;20091;-69
2022/02/18 09:16:22;;;;;;;9.00;2.10;;;14.00;73.90;;;;;;5095053;28;20115;-68
2022/02/18 09:18:50;;;;;;;5.18;2.00;;;14.00;77.10;;;;;;5076525;28;20128;-68
2022/02/18 09:21:16;;;;;;;12.85;2.47;;;14.10;80.60;;;;;;5094987;28;20053;-66
2022/02/18 09:23:42;;;;;;;11.98;2.88;;;14.20;81.90;;;;;;5094933;28;20020;-66
2022/02/18 09:26:08;;;;;;;10.90;2.83;;;14.10;80.30;;;;;;5094153;28;20047;-68
2022/02/18 09:28:34;;;;;;;14.20;3.17;;;14.20;79.90;;;;;;5094720;28;20043;-69
2022/02/18 09:31:00;;;;;;;10.70;2.35;;;;;;;;;;5094778;28;20059;-69
2022/02/18 09:33:28;;;;;;;8.13;2.45;;;14.20;75.10;;;;;;5094720;28;20468;-67
2022/02/18 09:35:54;;;;;;;11.85;2.65;;;14.60;68.50;;;;;;5076000;28;20031;-68
2022/02/18 09:38:20;;;;;;;8.70;2.53;;;14.90;72.40;;;;;;5093582;28;20038;-69
2022/02/18 09:40:46;;;;;;;8.43;2.38;;;15.10;70.00;;;;;;5094660;28;20028;-67
2022/02/18 09:43:14;;;;;;;13.45;3.22;;;15.30;69.70;;;;;;5076170;28;20395;-68
2022/02/18 09:45:40;;;;;;;10.02;3.03;;;15.40;68.70;;;;;;5075519;28;20027;-69
2022/02/18 09:48:06;;;;;;;13.07;2.33;;;15.30;68.70;;;;;;5094092;28;20035;-68
2022/02/18 09:50:32;;;;;;;7.97;2.65;;;15.30;68.00;;;;;;5094455;28;20028;-69
2022/02/18 09:52:58;;;;;;;7.38;2.70;;;15.10;66.00;;;;;;5094232;28;20063;-69
2022/02/18 09:55:24;;;;;;;11.32;2.83;;;15.10;66.10;;;;;;5094320;28;20020;-67
2022/02/18 09:57:54;;;;;;;11.98;3.05;;;15.30;66.60;;;;;;5075830;28;20059;-66
2022/02/18 10:00:20;;;;;;;15.05;2.83;;;15.40;64.70;;;;;;5076040;28;20028;-66
2022/02/18 10:02:48;;;;;;;11.20;2.35;;;15.40;65.50;;;;;;5093927;28;20035;-66
2022/02/18 10:05:15;;;;;;;32.15;3.90;;;15.40;65.20;;;;;;5093693;28;20070;-68
2022/02/18 10:08:04;;;;;;;5.80;2.03;;;15.70;67.10;;;;;;5093540;28;20028;-68
2022/02/18 10:10:30;;;;;;;8.60;2.22;;;15.60;63.10;;;;;;5093933;28;20024;-66
2022/02/18 10:12:56;;;;;;;9.45;1.80;;;15.60;66.10;;;;;;5094039;28;20023;-67
2022/02/18 10:15:23;;;;;;;8.18;2.00;;;15.70;63.80;;;;;;5093970;28;20044;-66
2022/02/18 10:17:49;;;;;;;5.72;2.03;;;;;;;;;;5093939;28;20103;-67
2022/02/18 10:20:22;;;;;;;8.80;2.53;;;;;;;;;;5075629;28;20066;-67
2022/02/18 10:22:55;;;;;;;16.05;3.90;;;;;;;;;;5093797;28;20481;-67
2022/02/18 10:25:25;;;;;;;8.88;2.80;;;;;;;;;;5093771;28;20032;-66
2022/02/18 10:27:52;;;;;;;9.88;2.72;;;;;;;;;;5093820;28;20040;-69
2022/02/18 10:30:30;;;;;;;11.90;2.47;;;;;;;;;;5074766;28;20028;-67
2022/02/18 10:33:17;;;;;;;8.95;2.90;;;16.00;63.00;;;;;;5093916;28;20023;-67
2022/02/18 10:35:48;;;;;;;6.15;2.10;;;;;;;;;;5075449;28;20028;-68
2022/02/18 10:38:15;;;;;;;9.35;2.67;;;;;;;;;;5075476;28;20028;-67
2022/02/18 10:40:51;;;;;;;5.97;2.20;;;17.00;59.90;;;;;;5093625;28;20035;-68
2022/02/18 10:43:25;;;;;;;10.73;2.50;;;19.00;59.40;;;;;;5093590;28;20393;-67
2022/02/18 10:49:24;;;;;;;7.63;2.28;;;;;;;;;;5091759;28;20043;-68
2022/02/18 10:51:50;;;;;;;14.10;2.72;;;;;;;;;;5075330;28;20449;-68
2022/02/18 10:54:17;;;;;;;10.55;2.60;;;;;;;;;;5075259;28;20024;-68
2022/02/18 10:56:43;;;;;;;9.43;2.28;;;18.40;56.00;;;;;;5092990;28;20117;-67
2022/02/18 10:59:10;;;;;;;13.50;2.47;;;;;;;;;;5093535;28;20110;-68
2022/02/18 11:01:45;;;;;;;12.38;2.40;;;;;;;;;;5092482;28;20079;-67
2022/02/18 11:04:12;;;;;;;6.57;2.15;;;21.50;54.10;;;;;;5093027;28;20081;-68
2022/02/18 11:06:38;;;;;;;10.35;2.95;;;22.80;49.30;;;;;;5092856;28;20036;-66
2022/02/18 11:09:09;;;;;;;6.10;2.28;;;23.20;49.30;;;;;;5074710;28;20389;-67
2022/02/18 11:11:39;;;;;;;8.07;2.67;;;24.00;46.50;;;;;;5089992;28;20032;-67
2022/02/18 11:14:06;;;;;;;7.32;2.33;;;;;;;;;;5075152;28;20048;-67
2022/02/18 11:16:34;;;;;;;9.80;2.72;;;24.70;46.10;;;;;;5092478;28;20055;-67
2022/02/18 11:19:00;;;;;;;8.32;2.15;;;24.20;45.70;;;;;;5092529;28;20448;-67
2022/02/18 11:21:27;;;;;;;9.10;2.08;;;23.70;46.10;;;;;;5074850;28;20067;-67
2022/02/18 11:23:58;;;;;;;9.35;2.50;;;24.00;45.40;;;;;;5092268;28;20077;-70
2022/02/18 11:26:25;;;;;;;9.23;2.38;;;;;;;;;;5093044;28;20111;-68
2022/02/18 11:28:53;;;;;;;7.78;2.00;;;23.30;45.40;;;;;;5092662;28;20503;-67
2022/02/18 11:31:30;;;;;;;9.35;2.65;;;;;;;;;;5074724;28;20036;-67
2022/02/18 11:34:04;;;;;;;6.72;2.85;;;24.40;44.80;;;;;;5074173;28;20441;-67
2022/02/18 11:36:49;;;;;;;8.20;1.80;;;25.80;42.60;;;;;;5092831;28;20036;-67
2022/02/18 11:39:32;;;;;;;9.32;2.42;;;26.10;42.50;;;;;;5074667;28;20161;-67
2022/02/18 11:42:01;;;;;;;7.70;2.05;;;;;;;;;;5095465;28;20024;-67
2022/02/18 11:44:33;;;;;;;7.95;2.30;;;27.70;39.80;;;;;;5096746;28;20024;-66
2022/02/18 11:47:11;;;;;;;7.07;2.20;;;23.70;61.20;;;;;;5096688;28;20055;-67
2022/02/18 11:49:37;;;;;;;6.40;2.20;;;;;;;;;;5096685;28;20111;-67
2022/02/18 11:52:11;;;;;;;9.45;2.13;;;21.60;45.50;;;;;;5096950;28;20023;-67
2022/02/18 11:54:37;;;;;;;7.57;2.13;;;20.50;48.80;;;;;;5095978;28;20071;-69
2022/02/18 11:57:07;;;;;;;10.48;2.35;;;19.90;49.60;;;;;;5096582;28;20030;-68
2022/02/18 11:59:42;;;;;;;7.43;2.25;;;19.70;51.20;;;;;;5096260;28;20373;-67
2022/02/18 12:02:09;;;;;;;7.72;2.03;;;;;;;;;;5099225;28;20070;-67
2022/02/18 12:04:36;;;;;;;8.43;2.75;;;20.00;52.60;;;;;;5102084;28;20426;-69
2022/02/18 12:07:20;;;;;;;6.38;2.10;;;25.00;44.80;;;;;;5107309;28;20371;-71
2022/02/18 12:09:48;;;;;;;9.60;3.45;;;24.60;43.10;;;;;;5108645;28;20039;-68
2022/02/18 12:12:34;;;;;;;8.98;2.88;;;25.90;43.60;;;;;;5116524;28;20357;-67
2022/02/18 12:15:10;;;;;;;10.23;2.35;;;27.40;41.10;;;;;;5115954;28;20404;-67
2022/02/18 12:17:38;;;;;;;6.65;2.25;;;26.00;42.10;;;;;;5116679;28;20035;-69
2022/02/18 12:20:12;;;;;;;7.95;2.30;;;;;;;;;;5116540;28;20028;-70
2022/02/18 12:22:38;;;;;;;15.77;2.88;;;25.60;42.50;;;;;;5116811;28;20102;-66
2022/02/18 12:25:28;;;;;;;8.88;2.67;;;;;;;;;;5097998;28;20555;-72
2022/02/18 12:28:18;;;;;;;7.80;2.65;;;22.30;46.20;;;;;;5103524;28;20373;-66
2022/02/18 12:31:06;;;;;;;9.75;3.45;;;20.60;49.50;;;;;;5116258;28;20032;-69
2022/02/18 12:33:33;;;;;;;9.38;3.28;;;20.10;52.00;;;;;;5116154;28;20111;-67
2022/02/18 12:35:59;;;;;;;15.98;3.50;;;;;;;;;;5115712;28;20089;-65
2022/02/18 12:38:25;;;;;;;8.82;2.70;;;;;;;;;;5116123;28;20027;-68
2022/02/18 12:40:52;;;;;;;8.40;2.75;;;;;;;;;;5116053;28;20069;-67
2022/02/18 12:43:18;;;;;;;9.38;3.08;;;20.00;51.80;;;;;;5116076;28;20026;-67
2022/02/18 12:46:05;;;;;;;10.65;3.38;;;20.10;50.10;;;;;;5097548;28;20358;-66
2022/02/18 12:48:38;;;;;;;10.25;3.90;;;20.40;49.60;;;;;;5115956;28;20032;-69
2022/02/18 12:51:17;;;;;;;8.50;2.40;;;20.40;50.60;;;;;;5115375;28;20112;-72
2022/02/18 12:53:46;;;;;;;10.05;3.17;;;;;;;;;;5115394;28;20059;-71
2022/02/18 12:56:15;;;;;;;8.75;3.28;;;;;;;;;;5115515;28;20020;-69
2022/02/18 12:58:48;;;;;;;6.25;2.83;;;21.20;48.90;;;;;;5115798;28;20038;-70
2022/02/18 13:01:14;;;;;;;9.55;2.88;;;23.20;47.50;;;;;;5115776;28;20103;-70
2022/02/18 13:03:40;;;;;;;7.47;2.58;;;22.80;47.90;;;;;;5097357;28;20028;-68
2022/02/18 13:06:07;;;;;;;14.68;3.28;;;21.80;47.50;;;;;;5115733;28;20420;-65
2022/02/18 13:08:35;;;;;;;13.52;3.95;;;21.50;48.50;;;;;;5115656;28;20112;-69
2022/02/18 13:11:14;;;;;;;14.25;3.38;;;21.70;48.60;;;;;;5115567;28;20483;-69
2022/02/18 13:13:41;;;;;;;10.82;3.33;;;;;;;;;;5115220;28;20131;-67
2022/02/18 13:16:08;;;;;;;9.68;3.15;;;21.80;48.60;;;;;;5093784;28;20019;-67
2022/02/18 13:18:35;;;;;;;10.95;3.03;;;22.90;48.40;;;;;;5115566;28;20517;-69
2022/02/18 13:21:02;;;;;;;12.02;4.00;;;24.00;46.60;;;;;;5097116;28;20056;-70
2022/02/18 13:23:29;;;;;;;9.38;3.70;;;;;;;;;;5097212;28;20457;-69
2022/02/18 13:25:57;;;;;;;9.15;3.92;;;25.90;44.60;;;;;;5115361;28;20467;-69
2022/02/18 13:28:57;;;;;;;12.30;3.58;;;28.90;41.80;;;;;;5115281;28;20046;-67
2022/02/18 13:31:23;;;;;;;13.45;4.00;;;28.80;41.00;;;;;;5011057;28;20033;-68
2022/02/18 13:33:51;;;;;;;14.80;3.40;;;28.30;41.30;;;;;;5012281;28;20029;-68
2022/02/18 13:36:28;;;;;;;14.80;4.25;;;27.00;42.60;;;;;;5012620;28;20061;-70
2022/02/18 13:39:00;;;;;;;8.60;3.10;;;26.60;43.90;;;;;;5012224;28;20029;-67
2022/02/18 13:41:27;;;;;;;13.02;5.22;;;;;;;;;;5012292;28;20077;-67
2022/02/18 13:43:54;;;;;;;10.63;4.03;;;25.50;45.40;;;;;;4995127;28;20030;-67
2022/02/18 13:46:38;;;;;;;13.23;4.65;;;23.70;45.80;;;;;;5012027;28;20459;-68
2022/02/18 13:49:11;;;;;;;6.90;2.80;;;22.50;49.20;;;;;;4995263;28;20041;-70
2022/02/18 13:51:39;;;;;;;9.25;3.67;;;23.40;47.60;;;;;;5011308;28;20367;-69
2022/02/18 13:54:06;;;;;;;9.60;3.83;;;24.10;47.50;;;;;;5014516;28;20685;-66
2022/02/18 13:56:34;;;;;;;13.18;3.60;;;24.40;46.40;;;;;;5031625;28;20072;-71
2022/02/18 13:59:23;;;;;;;8.38;3.50;;;23.70;47.10;;;;;;5014716;28;20474;-69
2022/02/18 14:01:54;;;;;;;13.07;4.10;;;22.60;46.90;;;;;;5015021;28;20136;-66
2022/02/18 14:04:21;;;;;;;8.38;3.17;;;;;;;;;;5014734;28;20061;-67
2022/02/18 14:06:58;;;;;;;10.05;3.75;;;21.60;49.00;;;;;;5049794;28;20023;-70